Time;durP1;ratioP1;P1;durP2;ratioP2;P2;SDS_P1;SDS_P2;PMS_P1;PMS_P2;Temp;Humidity;BMP_temperature;BMP_pressure;BME280_temperature;BME280_humidity;BME280_pressure;Samples;Min_cycle;Max_cycle;Signal;HPM_P1;HPM_P2
2023/05/29 00:01:08;;;;;;;0.20;0.20;;;10.00;99.90;;;;;;5057973;28;20200;-80
2023/05/29 00:03:33;;;;;;;0.20;0.20;;;10.00;99.90;;;;;;5031843;28;20202;-80
2023/05/29 00:06:00;;;;;;;0.20;0.20;;;9.90;99.90;;;;;;5047200;28;20449;-80
2023/05/29 00:08:26;;;;;;;0.20;0.20;;;9.90;99.90;;;;;;5030905;28;20765;-80
2023/05/29 00:10:51;;;;;;;0.20;0.20;;;10.00;99.90;;;;;;5047160;28;20433;-80
2023/05/29 00:13:17;;;;;;;0.20;0.20;;;9.90;99.90;;;;;;5047223;28;20266;-80
2023/05/29 00:15:42;;;;;;;0.20;0.20;;;9.90;99.90;;;;;;5045881;28;20244;-80
2023/05/29 00:18:08;;;;;;;0.20;0.20;;;9.90;99.90;;;;;;5042810;28;20191;-80
2023/05/29 00:20:34;;;;;;;0.20;0.20;;;9.90;99.90;;;;;;5015755;28;20218;-80
2023/05/29 00:23:01;;;;;;;0.20;0.20;;;9.90;99.90;;;;;;5041945;28;20200;-81
2023/05/29 00:25:27;;;;;;;0.20;0.20;;;9.80;99.90;;;;;;5051565;28;20429;-80
2023/05/29 00:27:53;;;;;;;0.20;0.20;;;9.80;99.90;;;;;;5054707;28;20449;-81
2023/05/29 00:30:18;;;;;;;0.20;0.20;;;9.70;99.90;;;;;;5046421;28;20259;-80
2023/05/29 00:32:44;;;;;;;0.20;0.20;;;9.70;99.90;;;;;;5047125;28;20215;-80
2023/05/29 00:35:10;;;;;;;0.20;0.20;;;9.60;99.90;;;;;;5051756;28;20198;-80
2023/05/29 00:37:35;;;;;;;0.20;0.20;;;9.50;99.90;;;;;;5046846;28;20218;-80
2023/05/29 00:40:01;;;;;;;0.20;0.20;;;9.50;99.90;;;;;;5048009;28;20488;-80
2023/05/29 00:42:26;;;;;;;0.20;0.20;;;9.50;99.90;;;;;;5047195;28;20198;-80
2023/05/29 00:44:52;;;;;;;0.20;0.20;;;9.40;99.90;;;;;;5057888;28;20257;-80
2023/05/29 00:47:18;;;;;;;0.20;0.20;;;9.40;99.90;;;;;;5046739;28;20221;-80
2023/05/29 00:49:44;;;;;;;0.20;0.20;;;9.40;99.90;;;;;;5047942;28;20550;-80
2023/05/29 00:52:10;;;;;;;0.20;0.20;;;9.40;99.90;;;;;;5058493;28;20624;-80
2023/05/29 00:54:37;;;;;;;0.20;0.20;;;9.20;99.90;;;;;;5050309;28;20483;-80
2023/05/29 00:57:04;;;;;;;0.20;0.20;;;9.20;99.90;;;;;;5045940;28;20452;-80
2023/05/29 00:59:33;;;;;;;0.20;0.20;;;9.20;99.90;;;;;;5067990;28;20475;-80
2023/05/29 01:02:02;;;;;;;0.20;0.20;;;9.10;99.90;;;;;;5066748;28;20522;-80
2023/05/29 01:04:27;;;;;;;0.20;0.20;;;9.10;99.90;;;;;;5050592;28;20480;-80
2023/05/29 01:06:53;;;;;;;0.20;0.20;;;9.00;99.90;;;;;;5067546;28;20484;-80
2023/05/29 01:09:19;;;;;;;0.20;0.20;;;9.00;99.90;;;;;;5067210;28;20198;-80
2023/05/29 01:12:07;;;;;;;0.20;0.20;;;9.00;99.90;;;;;;5066943;28;20239;-80
2023/05/29 01:15:05;;;;;;;0.20;0.20;;;9.00;99.90;;;;;;5068915;28;20182;-80
2023/05/29 01:17:49;;;;;;;0.20;0.20;;;9.00;99.90;;;;;;5050285;28;20835;-78
2023/05/29 01:20:25;;;;;;;0.20;0.20;;;8.90;99.90;;;;;;5066049;28;20439;-78
2023/05/29 01:23:17;;;;;;;0.20;0.20;;;8.70;99.90;;;;;;5070409;28;20451;-80
2023/05/29 01:25:55;;;;;;;0.20;0.20;;;8.70;99.90;;;;;;5067929;28;20967;-80
2023/05/29 01:28:24;;;;;;;0.20;0.20;;;8.70;99.90;;;;;;5068874;28;20526;-81
2023/05/29 01:30:51;;;;;;;0.20;0.20;;;8.70;99.90;;;;;;5066003;28;20459;-80
2023/05/29 01:33:17;;;;;;;0.20;0.20;;;8.70;99.90;;;;;;5068849;28;21009;-81
2023/05/29 01:35:42;;;;;;;0.30;0.30;;;8.70;99.90;;;;;;5068316;28;20440;-81
2023/05/29 01:38:08;;;;;;;0.20;0.20;;;8.60;99.90;;;;;;5067506;28;20197;-80
2023/05/29 01:40:34;;;;;;;0.23;0.23;;;8.60;99.90;;;;;;5069944;28;20196;-80
2023/05/29 01:43:00;;;;;;;0.20;0.20;;;8.60;99.90;;;;;;5069158;28;20180;-80
2023/05/29 01:45:25;;;;;;;0.20;0.20;;;8.60;99.90;;;;;;5066076;28;20448;-79
2023/05/29 01:47:51;;;;;;;0.20;0.20;;;8.60;99.90;;;;;;5053175;28;20189;-80
2023/05/29 01:50:19;;;;;;;0.20;0.20;;;8.60;99.90;;;;;;5069599;28;20202;-81
2023/05/29 01:52:44;;;;;;;0.20;0.20;;;8.50;99.90;;;;;;5072244;28;20218;-80
2023/05/29 01:55:10;;;;;;;0.20;0.20;;;8.50;99.90;;;;;;5071544;28;20455;-80
2023/05/29 01:57:36;;;;;;;0.20;0.20;;;8.40;99.90;;;;;;5049515;28;20285;-80
2023/05/29 02:00:08;;;;;;;0.20;0.20;;;8.40;99.90;;;;;;5049731;28;20187;-81
2023/05/29 02:02:38;;;;;;;0.20;0.20;;;8.50;99.90;;;;;;5061588;28;20502;-80
2023/05/29 02:05:05;;;;;;;0.20;0.20;;;8.50;99.90;;;;;;5022318;28;20473;-81
2023/05/29 02:07:31;;;;;;;0.20;0.20;;;8.30;99.90;;;;;;5069472;28;20448;-80
2023/05/29 02:09:56;;;;;;;0.20;0.20;;;8.40;99.90;;;;;;5055521;28;20445;-80
2023/05/29 02:12:22;;;;;;;0.20;0.20;;;8.50;99.90;;;;;;5040898;28;20713;-80
2023/05/29 02:14:48;;;;;;;0.20;0.20;;;8.40;99.90;;;;;;5055727;28;20194;-80
2023/05/29 02:17:14;;;;;;;0.20;0.20;;;8.40;99.90;;;;;;5051517;28;20722;-80
2023/05/29 02:19:40;;;;;;;0.20;0.20;;;8.40;99.90;;;;;;5062203;28;20451;-80
2023/05/29 02:22:06;;;;;;;0.20;0.20;;;8.30;99.90;;;;;;5058351;28;20891;-80
2023/05/29 02:24:32;;;;;;;0.30;0.30;;;8.30;99.90;;;;;;5053247;28;20201;-81
2023/05/29 02:26:57;;;;;;;0.20;0.20;;;8.30;99.90;;;;;;5050638;28;20441;-80
2023/05/29 02:29:23;;;;;;;0.20;0.20;;;8.20;99.90;;;;;;5031555;28;20191;-80
2023/05/29 02:31:48;;;;;;;0.20;0.20;;;8.20;99.90;;;;;;5062248;28;20213;-80
2023/05/29 02:34:14;;;;;;;0.20;0.20;;;8.10;99.90;;;;;;5032776;28;20191;-80
2023/05/29 02:36:39;;;;;;;0.30;0.30;;;8.20;99.90;;;;;;5040644;28;20254;-80
2023/05/29 02:39:05;;;;;;;0.20;0.20;;;8.10;99.90;;;;;;5035358;28;20201;-80
2023/05/29 02:41:31;;;;;;;0.20;0.20;;;8.10;99.90;;;;;;5031355;28;20195;-80
2023/05/29 02:43:57;;;;;;;0.20;0.20;;;8.00;99.90;;;;;;5032020;28;20532;-80
2023/05/29 02:46:22;;;;;;;0.20;0.20;;;8.10;99.90;;;;;;5049776;28;20579;-80
2023/05/29 02:48:48;;;;;;;0.20;0.20;;;8.00;99.90;;;;;;5042618;28;20191;-80
2023/05/29 02:51:14;;;;;;;0.30;0.30;;;7.90;99.90;;;;;;5031633;28;20595;-80
2023/05/29 02:53:39;;;;;;;0.30;0.30;;;7.90;99.90;;;;;;5050297;28;20211;-80
2023/05/29 02:56:08;;;;;;;0.20;0.20;;;7.80;99.90;;;;;;5055236;28;20709;-80
2023/05/29 02:58:35;;;;;;;0.30;0.30;;;7.90;99.90;;;;;;5038148;28;20835;-80
2023/05/29 03:01:02;;;;;;;0.20;0.20;;;7.80;99.90;;;;;;5047650;28;20871;-79
2023/05/29 03:03:27;;;;;;;0.20;0.20;;;7.80;99.90;;;;;;5050646;28;20432;-80
2023/05/29 03:05:53;;;;;;;0.30;0.30;;;7.80;99.90;;;;;;5038287;28;20459;-80
2023/05/29 03:08:19;;;;;;;0.20;0.20;;;7.80;99.90;;;;;;5068845;28;20192;-80
2023/05/29 03:10:44;;;;;;;0.30;0.30;;;7.90;99.90;;;;;;5046730;28;20190;-80
2023/05/29 03:13:10;;;;;;;0.30;0.30;;;7.80;99.90;;;;;;5034661;28;20201;-80
2023/05/29 03:15:35;;;;;;;0.30;0.30;;;7.80;99.90;;;;;;5062485;28;20195;-79
2023/05/29 03:18:01;;;;;;;0.20;0.20;;;7.90;99.90;;;;;;5032837;28;20650;-80
2023/05/29 03:20:27;;;;;;;0.20;0.20;;;7.80;99.90;;;;;;5048829;28;20182;-80
2023/05/29 03:22:53;;;;;;;0.30;0.30;;;7.80;99.90;;;;;;5033110;28;20233;-80
2023/05/29 03:25:20;;;;;;;0.20;0.20;;;7.90;99.90;;;;;;5053434;28;20445;-80
2023/05/29 03:27:46;;;;;;;0.30;0.30;;;7.90;99.90;;;;;;5050397;28;20182;-80
2023/05/29 03:30:11;;;;;;;0.30;0.30;;;8.00;99.90;;;;;;5047567;28;20480;-80
2023/05/29 03:32:37;;;;;;;0.30;0.30;;;8.00;99.90;;;;;;5049559;28;20226;-79
2023/05/29 03:35:03;;;;;;;0.20;0.20;;;7.90;99.90;;;;;;5060104;28;20227;-80
2023/05/29 03:37:29;;;;;;;0.30;0.30;;;8.00;99.90;;;;;;5066743;28;20649;-80
2023/05/29 03:39:55;;;;;;;0.30;0.30;;;7.90;99.90;;;;;;5051643;28;20444;-80
2023/05/29 03:42:20;;;;;;;0.20;0.20;;;8.00;99.90;;;;;;5047863;28;20445;-80
2023/05/29 03:44:46;;;;;;;0.30;0.30;;;8.10;99.90;;;;;;5047399;28;20218;-80
2023/05/29 03:47:12;;;;;;;0.30;0.30;;;7.90;99.90;;;;;;5046813;28;20441;-80
2023/05/29 03:49:37;;;;;;;0.20;0.20;;;8.00;99.90;;;;;;5047894;28;20183;-80
2023/05/29 03:52:04;;;;;;;0.20;0.20;;;8.00;99.90;;;;;;5053472;28;20711;-80
2023/05/29 03:54:29;;;;;;;0.30;0.30;;;8.00;99.90;;;;;;5058805;28;20602;-80
2023/05/29 03:56:55;;;;;;;0.20;0.20;;;8.10;99.90;;;;;;5065769;28;20446;-80
2023/05/29 03:59:20;;;;;;;0.20;0.20;;;8.10;99.90;;;;;;5044986;28;20231;-80
2023/05/29 04:01:46;;;;;;;0.20;0.20;;;8.10;99.90;;;;;;5041492;28;20193;-80
2023/05/29 04:04:11;;;;;;;0.20;0.20;;;8.10;99.90;;;;;;5049367;28;20186;-80
2023/05/29 04:06:40;;;;;;;0.30;0.30;;;8.10;99.90;;;;;;5029739;28;20195;-80
2023/05/29 04:09:06;;;;;;;0.20;0.20;;;8.20;99.90;;;;;;5030248;28;20179;-80
2023/05/29 04:11:34;;;;;;;0.20;0.20;;;8.20;99.90;;;;;;5048482;28;20568;-80
2023/05/29 04:14:00;;;;;;;0.20;0.20;;;8.30;99.90;;;;;;5050062;28;21083;-80
2023/05/29 04:16:25;;;;;;;0.20;0.20;;;8.30;99.90;;;;;;5043718;28;21089;-80
2023/05/29 04:18:51;;;;;;;0.20;0.20;;;8.30;99.90;;;;;;5047648;28;20469;-81
2023/05/29 04:21:16;;;;;;;0.20;0.20;;;8.40;99.90;;;;;;5047119;28;20190;-80
2023/05/29 04:23:42;;;;;;;0.20;0.20;;;8.50;99.90;;;;;;5037911;28;20186;-80
2023/05/29 04:26:07;;;;;;;0.20;0.20;;;8.50;99.90;;;;;;5044296;28;20194;-80
2023/05/29 04:28:33;;;;;;;0.20;0.20;;;8.50;99.90;;;;;;5052475;28;20199;-81
2023/05/29 04:30:58;;;;;;;0.27;0.27;;;8.50;99.90;;;;;;5048108;28;20179;-81
2023/05/29 04:33:26;;;;;;;0.20;0.20;;;8.60;99.90;;;;;;5047343;28;20197;-80
2023/05/29 04:35:52;;;;;;;0.20;0.20;;;8.60;99.90;;;;;;5047940;28;20198;-80
2023/05/29 04:38:19;;;;;;;0.20;0.20;;;8.70;99.90;;;;;;5048654;28;20445;-78
2023/05/29 04:40:44;;;;;;;0.20;0.20;;;8.70;99.90;;;;;;5041811;28;20445;-80
2023/05/29 04:43:10;;;;;;;0.20;0.20;;;8.70;99.90;;;;;;5047721;28;20476;-80
2023/05/29 04:45:36;;;;;;;0.20;0.20;;;8.70;99.90;;;;;;5047451;28;20190;-80
2023/05/29 04:48:03;;;;;;;0.20;0.20;;;8.80;99.90;;;;;;5047764;28;20179;-81
2023/05/29 04:50:30;;;;;;;0.23;0.23;;;8.70;99.90;;;;;;5046752;28;20535;-81
2023/05/29 04:52:57;;;;;;;0.20;0.20;;;8.70;99.90;;;;;;5046700;28;20551;-81
2023/05/29 04:55:23;;;;;;;0.20;0.20;;;8.90;99.90;;;;;;5045549;28;20513;-83
2023/05/29 04:57:48;;;;;;;0.20;0.20;;;8.90;99.90;;;;;;5055692;28;20940;-81
2023/05/29 05:00:33;;;;;;;0.20;0.20;;;9.00;99.90;;;;;;5082476;28;20429;-82
2023/05/29 05:02:58;;;;;;;0.20;0.20;;;9.00;99.90;;;;;;5045968;28;20182;-81
2023/05/29 05:05:24;;;;;;;0.20;0.20;;;9.10;99.90;;;;;;5066688;28;20455;-80
2023/05/29 05:07:51;;;;;;;0.20;0.20;;;9.20;99.90;;;;;;5057171;28;20550;-80
2023/05/29 05:10:16;;;;;;;0.20;0.20;;;9.30;99.90;;;;;;5084484;28;20185;-81
2023/05/29 05:12:42;;;;;;;0.20;0.20;;;9.30;99.90;;;;;;5080481;28;20493;-82
2023/05/29 05:15:08;;;;;;;0.20;0.20;;;9.30;99.90;;;;;;5081531;28;20323;-81
2023/05/29 05:17:34;;;;;;;0.20;0.20;;;9.50;99.90;;;;;;5050017;28;20612;-81
2023/05/29 05:19:59;;;;;;;0.20;0.20;;;9.70;99.90;;;;;;5062255;28;20488;-81
2023/05/29 05:22:25;;;;;;;0.20;0.20;;;9.70;99.90;;;;;;5054441;28;20182;-82
2023/05/29 05:24:52;;;;;;;0.20;0.20;;;9.70;99.90;;;;;;5062907;28;20213;-81
2023/05/29 05:27:18;;;;;;;0.20;0.20;;;9.80;99.90;;;;;;5085961;28;20197;-82
2023/05/29 05:29:43;;;;;;;0.20;0.20;;;10.00;99.90;;;;;;5072091;28;20802;-81
2023/05/29 05:32:09;;;;;;;0.20;0.20;;;10.00;99.90;;;;;;5080467;28;20258;-81
2023/05/29 05:34:35;;;;;;;0.20;0.20;;;10.10;99.90;;;;;;5068152;28;20186;-81
2023/05/29 05:37:02;;;;;;;0.20;0.20;;;10.20;99.90;;;;;;5050604;28;20216;-80
2023/05/29 05:39:27;;;;;;;0.20;0.20;;;10.20;99.90;;;;;;5075125;28;20665;-81
2023/05/29 05:41:53;;;;;;;0.20;0.20;;;10.20;99.90;;;;;;5070817;28;20535;-81
2023/05/29 05:44:18;;;;;;;0.20;0.20;;;10.40;99.90;;;;;;5076043;28;20261;-80
2023/05/29 05:46:44;;;;;;;0.20;0.20;;;10.10;99.90;;;;;;5073064;28;20186;-81
2023/05/29 05:49:10;;;;;;;0.20;0.20;;;10.30;99.90;;;;;;5051424;28;20305;-83
2023/05/29 05:51:36;;;;;;;0.20;0.20;;;10.60;99.90;;;;;;5050266;28;20807;-80
2023/05/29 05:54:01;;;;;;;0.20;0.20;;;10.80;99.90;;;;;;5052186;28;20182;-82
2023/05/29 05:56:26;;;;;;;0.10;0.10;;;10.70;99.90;;;;;;5078576;28;20200;-82
2023/05/29 05:58:52;;;;;;;0.10;0.10;;;10.90;99.90;;;;;;5070541;28;20229;-80
2023/05/29 06:01:18;;;;;;;0.20;0.20;;;10.80;99.90;;;;;;5079680;28;20192;-82
2023/05/29 06:03:44;;;;;;;0.20;0.20;;;11.00;99.90;;;;;;5072168;28;20323;-83
2023/05/29 06:06:09;;;;;;;0.20;0.20;;;11.00;99.90;;;;;;5070502;28;20455;-83
2023/05/29 06:08:35;;;;;;;0.20;0.20;;;11.00;99.90;;;;;;5066110;28;20456;-83
2023/05/29 06:11:01;;;;;;;0.20;0.20;;;11.30;99.90;;;;;;5054301;28;20527;-83
2023/05/29 06:13:26;;;;;;;0.10;0.10;;;11.40;99.90;;;;;;5075749;28;20193;-83
2023/05/29 06:15:52;;;;;;;0.20;0.20;;;11.40;99.90;;;;;;5056290;28;20190;-83
2023/05/29 06:18:17;;;;;;;0.20;0.20;;;11.50;99.90;;;;;;5080703;28;20710;-81
2023/05/29 06:20:43;;;;;;;0.20;0.20;;;11.00;99.90;;;;;;5056488;28;20185;-82
2023/05/29 06:23:08;;;;;;;0.20;0.20;;;11.20;99.90;;;;;;5078469;28;20171;-82
2023/05/29 06:25:34;;;;;;;0.17;0.17;;;11.40;99.90;;;;;;5086474;28;20233;-82
2023/05/29 06:28:05;;;;;;;0.10;0.10;;;11.50;99.90;;;;;;5076237;28;21025;-83
2023/05/29 06:30:31;;;;;;;0.20;0.20;;;11.80;99.90;;;;;;5077598;28;20192;-84
2023/05/29 06:32:56;;;;;;;0.20;0.20;;;12.00;99.90;;;;;;5072537;28;20492;-84
2023/05/29 06:35:22;;;;;;;0.13;0.13;;;11.90;99.90;;;;;;5069841;28;20197;-83
2023/05/29 06:37:47;;;;;;;0.20;0.20;;;12.00;99.90;;;;;;5068656;28;20189;-82
2023/05/29 06:40:14;;;;;;;0.10;0.10;;;11.80;99.90;;;;;;5087482;28;20185;-83
2023/05/29 06:42:39;;;;;;;0.20;0.20;;;11.80;99.90;;;;;;5069191;28;20907;-82
2023/05/29 06:45:05;;;;;;;0.10;0.10;;;11.90;99.90;;;;;;5070768;28;20419;-83
2023/05/29 06:47:31;;;;;;;0.20;0.20;;;11.90;99.90;;;;;;5066980;28;20204;-83
2023/05/29 06:49:57;;;;;;;0.10;0.10;;;12.20;99.90;;;;;;5079406;28;20438;-82
2023/05/29 06:52:22;;;;;;;0.10;0.10;;;12.30;99.90;;;;;;5077459;28;20225;-83
2023/05/29 06:54:48;;;;;;;0.10;0.10;;;12.60;99.90;;;;;;5070098;28;20178;-83
2023/05/29 06:57:13;;;;;;;0.10;0.10;;;12.70;99.90;;;;;;5064280;28;20268;-82
2023/05/29 06:59:39;;;;;;;0.20;0.20;;;12.60;99.90;;;;;;5065329;28;20310;-82
2023/05/29 07:02:05;;;;;;;0.10;0.10;;;12.70;99.90;;;;;;5064569;28;20181;-82
2023/05/29 07:04:30;;;;;;;0.10;0.10;;;12.40;99.90;;;;;;5071782;28;20181;-81
2023/05/29 07:06:56;;;;;;;0.20;0.20;;;12.40;99.90;;;;;;5064756;28;20471;-80
2023/05/29 07:09:21;;;;;;;0.10;0.10;;;12.40;99.90;;;;;;5068887;28;20562;-82
2023/05/29 07:11:47;;;;;;;0.10;0.10;;;12.40;99.90;;;;;;5071701;28;20249;-83
2023/05/29 07:14:14;;;;;;;0.10;0.10;;;12.80;99.90;;;;;;5066704;28;20189;-84
2023/05/29 07:16:39;;;;;;;0.10;0.10;;;13.00;99.90;;;;;;5070100;28;20531;-85
2023/05/29 07:19:05;;;;;;;0.10;0.10;;;13.10;99.90;;;;;;5069802;28;20440;-85
2023/05/29 07:21:31;;;;;;;0.10;0.10;;;13.30;99.90;;;;;;5076146;28;20255;-83
2023/05/29 07:23:56;;;;;;;0.10;0.10;;;13.00;99.90;;;;;;5069066;28;20217;-82
2023/05/29 07:26:22;;;;;;;0.10;0.10;;;12.80;99.90;;;;;;5069346;28;20545;-82
2023/05/29 07:28:48;;;;;;;0.10;0.10;;;13.00;99.90;;;;;;5069685;28;20605;-87
2023/05/29 07:31:14;;;;;;;0.10;0.10;;;13.00;99.90;;;;;;5067076;28;20471;-86
2023/05/29 07:33:41;;;;;;;0.10;0.10;;;13.30;99.90;;;;;;5068524;28;21213;-84
2023/05/29 07:36:07;;;;;;;0.10;0.10;;;13.30;99.90;;;;;;5068252;28;20220;-83
2023/05/29 07:38:33;;;;;;;0.10;0.10;;;13.40;99.90;;;;;;5071421;28;20442;-84
2023/05/29 07:40:58;;;;;;;0.10;0.10;;;13.70;99.90;;;;;;5077452;28;20435;-84
2023/05/29 07:43:24;;;;;;;0.10;0.10;;;13.70;99.90;;;;;;5063329;28;20305;-84
2023/05/29 07:45:49;;;;;;;0.10;0.10;;;13.50;99.90;;;;;;5072336;28;20193;-85
2023/05/29 07:48:15;;;;;;;0.10;0.10;;;14.00;99.90;;;;;;5072874;28;20186;-86
2023/05/29 07:50:40;;;;;;;0.10;0.10;;;14.10;99.90;;;;;;5068538;28;20276;-85
2023/05/29 07:53:06;;;;;;;0.10;0.10;;;13.90;99.90;;;;;;5063627;28;20218;-86
2023/05/29 07:55:33;;;;;;;0.10;0.10;;;14.00;99.90;;;;;;5070015;28;20185;-84
2023/05/29 07:57:59;;;;;;;0.10;0.10;;;13.80;99.90;;;;;;5066067;28;20301;-84
2023/05/29 08:00:25;;;;;;;0.10;0.10;;;13.70;99.90;;;;;;5068632;28;20543;-87
2023/05/29 08:02:51;;;;;;;0.10;0.10;;;14.60;99.90;;;;;;5058726;28;20218;-86
2023/05/29 08:05:17;;;;;;;0.10;0.10;;;14.10;99.90;;;;;;5054799;28;21388;-86
2023/05/29 08:07:43;;;;;;;0.10;0.10;;;14.40;99.90;;;;;;5072199;28;20467;-84
2023/05/29 08:10:09;;;;;;;0.10;0.10;;;14.60;99.90;;;;;;5059864;28;20170;-84
2023/05/29 08:12:35;;;;;;;0.10;0.10;;;15.10;99.90;;;;;;5063593;28;20577;-83
2023/05/29 08:15:03;;;;;;;0.10;0.10;;;15.30;99.90;;;;;;5065080;28;20560;-84
2023/05/29 08:17:28;;;;;;;0.10;0.10;;;15.50;99.90;;;;;;5069987;28;20936;-84
2023/05/29 08:19:54;;;;;;;0.10;0.10;;;15.70;99.90;;;;;;5062091;28;20465;-84
2023/05/29 08:22:19;;;;;;;0.10;0.10;;;15.60;99.90;;;;;;5053593;28;20187;-84
2023/05/29 08:24:45;;;;;;;0.10;0.10;;;15.80;99.90;;;;;;5058953;28;20186;-84
2023/05/29 08:27:10;;;;;;;0.10;0.10;;;15.60;99.90;;;;;;5067168;28;20247;-83
2023/05/29 08:29:38;;;;;;;0.10;0.10;;;15.80;99.90;;;;;;5060698;28;20224;-83
2023/05/29 08:32:04;;;;;;;0.10;0.10;;;16.20;99.90;;;;;;5066756;28;20662;-83
2023/05/29 08:34:30;;;;;;;0.10;0.10;;;16.40;99.90;;;;;;5063309;28;20444;-83
2023/05/29 08:36:55;;;;;;;0.10;0.10;;;16.50;99.90;;;;;;5066775;28;20243;-83
2023/05/29 08:39:21;;;;;;;0.10;0.10;;;16.70;99.90;;;;;;5065534;28;20427;-85
2023/05/29 08:41:51;;;;;;;0.10;0.10;;;16.70;99.90;;;;;;5063095;28;20820;-87
2023/05/29 08:44:21;;;;;;;0.10;0.10;;;16.90;99.90;;;;;;5064923;28;20199;-86
2023/05/29 08:46:49;;;;;;;0.10;0.10;;;17.00;99.90;;;;;;5074775;28;20468;-86
2023/05/29 08:49:17;;;;;;;0.10;0.10;;;17.20;99.90;;;;;;5068802;28;20453;-87
2023/05/29 08:51:46;;;;;;;0.10;0.10;;;17.00;99.90;;;;;;5043066;28;20515;-87
2023/05/29 08:54:15;;;;;;;0.10;0.10;;;16.90;99.90;;;;;;5070513;28;20468;-88
2023/05/29 08:56:40;;;;;;;0.10;0.10;;;16.90;99.90;;;;;;5080481;28;20842;-88
2023/05/29 08:59:07;;;;;;;0.10;0.10;;;17.20;99.90;;;;;;5064348;28;20526;-87
2023/05/29 09:01:35;;;;;;;0.10;0.10;;;17.30;99.90;;;;;;5044130;28;20238;-85
2023/05/29 09:04:01;;;;;;;0.10;0.10;;;17.60;99.90;;;;;;5051201;28;20452;-88
2023/05/29 09:06:26;;;;;;;0.10;0.10;;;17.40;99.90;;;;;;5053360;28;20432;-88
2023/05/29 09:08:52;;;;;;;0.10;0.10;;;17.40;99.90;;;;;;5047565;28;20195;-86
2023/05/29 09:11:18;;;;;;;0.10;0.10;;;17.80;99.90;;;;;;5052804;28;20210;-87
2023/05/29 09:13:45;;;;;;;0.10;0.10;;;17.80;99.90;;;;;;5051209;28;20465;-86
2023/05/29 09:16:10;;;;;;;0.10;0.10;;;18.10;99.90;;;;;;5051294;28;20187;-87
2023/05/29 09:18:36;;;;;;;0.10;0.00;;;18.30;99.90;;;;;;5048184;28;20467;-86
2023/05/29 09:21:09;;;;;;;0.10;0.10;;;18.30;99.90;;;;;;5050809;28;20259;-85
2023/05/29 09:23:35;;;;;;;0.10;0.10;;;18.30;99.90;;;;;;5044773;28;20183;-87
2023/05/29 09:26:03;;;;;;;0.10;0.10;;;18.60;99.90;;;;;;5050573;28;20441;-88
2023/05/29 09:28:31;;;;;;;0.10;0.00;;;18.60;99.90;;;;;;5042133;28;20187;-87
2023/05/29 09:30:57;;;;;;;0.10;0.10;;;19.10;99.70;;;;;;5050942;28;20433;-87
2023/05/29 09:33:24;;;;;;;0.10;0.07;;;18.40;99.70;;;;;;5053635;28;21098;-88
2023/05/29 09:35:50;;;;;;;0.10;0.00;;;18.70;99.20;;;;;;5052883;28;20183;-89
2023/05/29 09:38:18;;;;;;;0.10;0.10;;;19.10;99.80;;;;;;5052498;28;20459;-89
2023/05/29 09:40:47;;;;;;;0.10;0.00;;;19.50;99.90;;;;;;5054117;28;20191;-88
2023/05/29 09:43:19;;;;;;;0.10;0.00;;;19.70;98.50;;;;;;5052179;28;20448;-88
2023/05/29 09:45:50;;;;;;;0.10;0.00;;;19.50;97.90;;;;;;5049167;28;20539;-89
2023/05/29 09:48:26;;;;;;;0.10;0.00;;;19.30;98.80;;;;;;5050701;28;20433;-90
2023/05/29 09:50:53;;;;;;;0.10;0.00;;;19.80;98.60;;;;;;5049931;28;20452;-89
2023/05/29 09:53:21;;;;;;;0.10;0.00;;;19.30;96.80;;;;;;5049646;28;20495;-89
2023/05/29 09:55:48;;;;;;;0.10;0.07;;;19.50;99.30;;;;;;5049883;28;20437;-88
2023/05/29 09:58:15;;;;;;;0.10;0.00;;;19.40;98.30;;;;;;5079038;28;20490;-88
2023/05/29 10:00:42;;;;;;;0.10;0.10;;;20.10;98.40;;;;;;5074418;28;20974;-89
2023/05/29 10:03:08;;;;;;;0.10;0.00;;;20.10;98.80;;;;;;5075986;28;20449;-88
2023/05/29 10:05:34;;;;;;;0.10;0.00;;;20.10;97.20;;;;;;5071360;28;20470;-88
2023/05/29 10:08:02;;;;;;;0.10;0.00;;;20.30;97.00;;;;;;5071382;28;20450;-88
2023/05/29 10:10:29;;;;;;;0.10;0.00;;;20.40;96.70;;;;;;5070702;28;20463;-87
2023/05/29 10:12:56;;;;;;;0.10;0.00;;;20.30;96.90;;;;;;5070143;28;20558;-88
2023/05/29 10:15:29;;;;;;;0.10;0.00;;;20.30;97.00;;;;;;5075166;28;20444;-88
2023/05/29 10:18:11;;;;;;;0.10;0.00;;;20.30;94.90;;;;;;5054452;28;20439;-87
2023/05/29 10:20:37;;;;;;;0.00;0.00;;;20.30;95.80;;;;;;5075698;28;20439;-89
2023/05/29 10:23:04;;;;;;;0.10;0.00;;;21.10;96.90;;;;;;5059669;28;20780;-88
2023/05/29 10:25:31;;;;;;;0.10;0.00;;;21.10;97.70;;;;;;5074549;28;21132;-88
2023/05/29 10:27:58;;;;;;;0.10;0.00;;;21.50;95.50;;;;;;5073818;28;20432;-88
2023/05/29 10:30:34;;;;;;;0.10;0.00;;;21.60;95.90;;;;;;5074391;28;21063;-88
2023/05/29 10:33:32;;;;;;;0.10;0.00;;;22.00;97.20;;;;;;5068545;28;20604;-88
2023/05/29 10:36:23;;;;;;;0.10;0.00;;;21.60;96.50;;;;;;5062164;28;21073;-89
2023/05/29 10:38:50;;;;;;;0.00;0.00;;;20.80;93.30;;;;;;5062440;28;20534;-89
2023/05/29 10:41:27;;;;;;;0.10;0.00;;;21.60;94.60;;;;;;5052573;28;20451;-89
2023/05/29 10:44:03;;;;;;;0.10;0.00;;;22.50;94.00;;;;;;5063585;28;20428;-90
2023/05/29 10:46:51;;;;;;;0.10;0.00;;;22.20;95.50;;;;;;5044786;28;20475;-89
2023/05/29 10:49:21;;;;;;;0.10;0.00;;;23.40;95.10;;;;;;5065161;28;20880;-88
2023/05/29 10:51:48;;;;;;;0.03;0.00;;;22.80;93.20;;;;;;5070959;28;20496;-89
2023/05/29 10:54:14;;;;;;;0.10;0.00;;;23.20;92.60;;;;;;5062752;28;20752;-89
2023/05/29 10:56:41;;;;;;;0.10;0.00;;;23.40;93.30;;;;;;5068363;28;21109;-89
2023/05/29 10:59:08;;;;;;;0.10;0.10;;;22.90;92.00;;;;;;5087557;28;20532;-89
2023/05/29 11:01:35;;;;;;;0.10;0.00;;;23.10;92.10;;;;;;5072138;28;20459;-90
2023/05/29 11:04:31;;;;;;;0.10;0.00;;;23.80;93.20;;;;;;5068407;28;20470;-89
2023/05/29 11:06:57;;;;;;;0.10;0.00;;;23.10;90.90;;;;;;5046504;28;20502;-88
2023/05/29 11:09:37;;;;;;;0.10;0.00;;;23.80;94.90;;;;;;5066520;28;20444;-88
2023/05/29 11:12:35;;;;;;;0.10;0.00;;;24.50;92.00;;;;;;5085058;28;20506;-91
2023/05/29 11:15:10;;;;;;;0.10;0.00;;;22.70;88.60;;;;;;5065862;28;20445;-89
2023/05/29 11:17:38;;;;;;;0.10;0.00;;;23.20;91.30;;;;;;5069994;28;20454;-88
2023/05/29 11:20:15;;;;;;;0.10;0.00;;;23.00;88.00;;;;;;5073960;28;21096;-87
2023/05/29 11:22:59;;;;;;;0.10;0.00;;;24.00;91.30;;;;;;5082623;28;20458;-88
2023/05/29 11:25:26;;;;;;;0.00;0.00;;;24.70;90.50;;;;;;5066381;28;20440;-88
2023/05/29 11:27:54;;;;;;;0.10;0.00;;;24.90;91.00;;;;;;5053128;28;20531;-87
2023/05/29 11:30:21;;;;;;;0.10;0.00;;;25.10;88.40;;;;;;5065541;28;21324;-86
2023/05/29 11:32:52;;;;;;;0.10;0.00;;;24.10;85.80;;;;;;5077030;28;20610;-86
2023/05/29 11:35:21;;;;;;;0.10;0.00;;;24.00;89.80;;;;;;5071404;28;20425;-87
2023/05/29 11:37:47;;;;;;;0.00;0.00;;;24.80;90.20;;;;;;5068439;28;20499;-87
2023/05/29 11:40:15;;;;;;;0.00;0.00;;;24.60;90.90;;;;;;5078268;28;20521;-85
2023/05/29 11:42:46;;;;;;;0.00;0.00;;;25.00;91.10;;;;;;5068826;28;20189;-90
2023/05/29 11:45:12;;;;;;;0.00;0.00;;;23.60;80.50;;;;;;5056027;28;20486;-88
2023/05/29 11:47:53;;;;;;;0.00;0.00;;;24.00;87.70;;;;;;5063082;28;20513;-90
2023/05/29 11:50:27;;;;;;;0.00;0.00;;;25.10;87.60;;;;;;5063871;28;20441;-89
2023/05/29 11:52:53;;;;;;;0.00;0.00;;;25.20;80.40;;;;;;5061999;28;20495;-89
2023/05/29 11:55:23;;;;;;;0.00;0.00;;;25.20;82.70;;;;;;5070887;28;20966;-86
2023/05/29 11:57:50;;;;;;;0.00;0.00;;;24.90;86.20;;;;;;5065825;28;20502;-88
2023/05/29 12:00:18;;;;;;;0.10;0.00;;;25.30;86.20;;;;;;5069509;28;20443;-87
2023/05/29 12:02:46;;;;;;;0.10;0.00;;;25.60;87.30;;;;;;5074137;28;20847;-87
2023/05/29 12:05:14;;;;;;;0.10;0.00;;;25.50;84.70;;;;;;5066803;28;20467;-88
2023/05/29 12:07:56;;;;;;;0.10;0.00;;;26.20;86.30;;;;;;5063128;28;20507;-89
2023/05/29 12:10:22;;;;;;;0.00;0.00;;;25.80;77.30;;;;;;5066249;28;20445;-88
2023/05/29 12:12:52;;;;;;;0.10;0.00;;;25.60;76.80;;;;;;5053539;28;20483;-89
2023/05/29 12:15:19;;;;;;;0.00;0.00;;;25.10;74.40;;;;;;5065571;28;20530;-87
2023/05/29 12:17:45;;;;;;;0.00;0.00;;;24.60;84.80;;;;;;5066244;28;20888;-87
2023/05/29 12:20:13;;;;;;;0.00;0.00;;;25.50;89.80;;;;;;5050750;28;20435;-86
2023/05/29 12:22:40;;;;;;;0.00;0.00;;;26.00;89.60;;;;;;5060348;28;20483;-85
2023/05/29 12:25:14;;;;;;;0.10;0.00;;;25.10;85.30;;;;;;5057533;28;20988;-87
2023/05/29 12:27:42;;;;;;;0.10;0.00;;;25.10;86.70;;;;;;5058382;28;20500;-83
2023/05/29 12:30:14;;;;;;;0.10;0.00;;;25.60;84.60;;;;;;5048114;28;20467;-83
2023/05/29 12:32:42;;;;;;;0.10;0.00;;;25.80;89.00;;;;;;5073021;28;20545;-89
2023/05/29 12:35:15;;;;;;;0.10;0.00;;;25.60;86.60;;;;;;5073059;28;20446;-84
2023/05/29 12:38:05;;;;;;;0.10;0.00;;;25.60;89.00;;;;;;5074213;28;20448;-84
2023/05/29 12:40:39;;;;;;;0.10;0.00;;;25.30;85.30;;;;;;5068287;28;20435;-84
2023/05/29 12:43:06;;;;;;;0.10;0.00;;;25.10;86.80;;;;;;5075160;28;20957;-86
2023/05/29 12:45:33;;;;;;;0.10;0.00;;;25.40;91.80;;;;;;5076186;28;20531;-84
2023/05/29 12:48:01;;;;;;;0.10;0.00;;;24.50;87.00;;;;;;5062507;28;20445;-84
2023/05/29 12:50:27;;;;;;;0.00;0.00;;;25.10;87.60;;;;;;5054828;28;20476;-82
2023/05/29 12:52:57;;;;;;;0.10;0.00;;;25.30;88.30;;;;;;5078225;28;20534;-83